Norwood, New York
Current Conditions -  °F | °C
As of 5:53 PM on Friday 31 Oct 2014 (Local Time) from KMSS Reporting Station
Overcast Overcast  
Wind Chill: 37°   Ceiling: 9500
Heat Index: 42°   Visibility: 10mi
Dew Point: 27°   Wind: 9mph
Humidity: 55%   Direction: 30°NNE
Pressure: 30.05"   Gusts: NA
Location:  44.75°N, 74.99°W
Report Text: KMSS 312153Z AUTO 03008KT 10SM OVC095 06/M03 A3005 RMK AO2 SLP181 T00561028
Loading
Personal Weather Stations






























Interactive Weather Map
Tropical Storm Tracking
New forecast layout! Learn more

10-Day Weather Forecast

Advertisements
Track Severe Weather on mobile